createdAt,value
2023-03-12T00:03:04.354Z,96654.38
2023-03-12T00:07:59.828Z,96660.16
2023-03-12T00:12:54.853Z,96659.41
2023-03-12T00:17:48.278Z,96657.06
2023-03-12T00:22:42.073Z,96659.94
2023-03-12T00:27:35.389Z,96665.19
2023-03-12T00:32:30.184Z,96657.91
2023-03-12T00:37:24.113Z,96666.63
2023-03-12T00:42:18.108Z,96668.50
2023-03-12T00:47:12.072Z,96666.72
2023-03-12T00:52:07.314Z,96670.25
2023-03-12T00:57:00.645Z,96667.47
2023-03-12T01:01:54.026Z,96670.25
2023-03-12T01:06:47.354Z,96672.00
2023-03-12T01:11:42.211Z,96672.50
2023-03-12T01:16:35.988Z,96673.53
2023-03-12T01:21:31.124Z,96674.34
2023-03-12T01:26:24.755Z,96670.84
2023-03-12T01:31:20.747Z,96670.59
2023-03-12T01:36:20.207Z,96667.44
2023-03-12T01:41:14.152Z,96672.56
2023-03-12T01:46:28.375Z,96665.63
2023-03-12T01:51:23.251Z,96666.44
2023-03-12T01:56:20.004Z,96670.03
2023-03-12T02:01:14.213Z,96670.59
2023-03-12T02:06:14.709Z,96666.31
2023-03-12T02:11:08.512Z,96663.53
2023-03-12T02:16:02.220Z,96661.25
2023-03-12T02:21:09.114Z,96678.13
2023-03-12T02:26:06.624Z,96674.34
2023-03-12T02:31:04.963Z,96675.69
2023-03-12T02:35:58.299Z,96660.56
2023-03-12T02:40:53.589Z,96664.78
2023-03-12T02:45:48.828Z,96676.50
2023-03-12T02:50:42.743Z,96679.22
2023-03-12T02:55:36.103Z,96684.75
2023-03-12T03:00:32.225Z,96692.84
2023-03-12T03:05:26.989Z,96692.28
2023-03-12T03:10:20.508Z,96694.94
2023-03-12T03:15:14.743Z,96701.56
2023-03-12T03:20:11.924Z,96702.91
2023-03-12T03:25:08.695Z,96692.34
2023-03-12T03:30:02.337Z,96692.19
2023-03-12T03:34:55.651Z,96696.44
2023-03-12T03:39:48.995Z,96689.41
2023-03-12T03:44:43.880Z,96689.16
2023-03-12T03:49:37.218Z,96676.31
2023-03-12T03:54:31.243Z,96668.53
2023-03-12T03:59:24.692Z,96664.22
2023-03-12T04:04:19.441Z,96652.28
2023-03-12T04:09:12.765Z,96638.34
2023-03-12T04:14:06.126Z,96622.59
2023-03-12T04:18:59.565Z,96617.47
2023-03-12T04:23:54.339Z,96630.13
2023-03-12T04:28:47.632Z,96632.81
2023-03-12T04:33:41.992Z,96646.81
2023-03-12T04:38:35.744Z,96657.91
2023-03-12T04:43:31.081Z,96648.94
2023-03-12T04:48:24.600Z,96654.97
2023-03-12T04:53:18.070Z,96652.53
2023-03-12T04:58:11.468Z,96649.63
2023-03-12T05:03:06.200Z,96651.22
2023-03-12T05:07:59.496Z,96644.16
2023-03-12T05:12:52.888Z,96645.00
2023-03-12T05:17:46.393Z,96626.41
2023-03-12T05:22:41.779Z,96630.75
2023-03-12T05:27:35.141Z,96642.34
2023-03-12T05:32:28.580Z,96634.94
2023-03-12T05:37:21.948Z,96631.22
2023-03-12T05:42:17.346Z,96634.13
2023-03-12T05:47:10.883Z,96645.09
2023-03-12T05:52:04.254Z,96643.59
2023-03-12T05:56:57.786Z,96642.78
2023-03-12T06:01:52.589Z,96654.09
2023-03-12T06:06:46.023Z,96650.94
2023-03-12T06:11:39.353Z,96636.13
2023-03-12T06:16:32.943Z,96648.28
2023-03-12T06:21:30.432Z,96649.53
2023-03-12T06:26:24.764Z,96632.31
2023-03-12T06:31:19.311Z,96647.72
2023-03-12T06:36:13.821Z,96660.75
2023-03-12T06:41:12.093Z,96637.94
2023-03-12T06:46:08.093Z,96656.13
2023-03-12T06:51:01.835Z,96653.94
2023-03-12T06:55:55.268Z,96659.97
2023-03-12T07:00:50.271Z,96657.09
2023-03-12T07:05:46.452Z,96644.22
2023-03-12T07:10:39.820Z,96631.03
2023-03-12T07:15:33.825Z,96655.75
2023-03-12T07:20:28.595Z,96672.00
2023-03-12T07:25:21.896Z,96656.78
2023-03-12T07:30:15.678Z,96668.94
2023-03-12T07:40:19.400Z,96667.97
2023-03-12T07:45:13.052Z,96666.97
2023-03-12T07:50:07.364Z,96678.59
2023-03-12T07:55:00.897Z,96680.66
2023-03-12T07:59:55.862Z,96691.06
2023-03-12T08:04:51.304Z,96691.56
2023-03-12T08:09:45.653Z,96691.44
2023-03-12T08:14:39.170Z,96695.44
2023-03-12T08:19:33.921Z,96685.19
2023-03-12T08:24:27.302Z,96695.09
2023-03-12T08:29:20.680Z,96701.50
2023-03-12T08:34:14.040Z,96697.94
2023-03-12T08:39:08.803Z,96699.63
2023-03-12T08:44:02.277Z,96708.06
2023-03-12T08:48:55.571Z,96708.09
2023-03-12T08:53:48.940Z,96710.59
2023-03-12T08:58:44.903Z,96706.34
2023-03-12T09:03:38.371Z,96714.81
2023-03-12T09:08:33.970Z,96727.53
2023-03-12T09:13:36.645Z,96725.47
2023-03-12T09:18:42.036Z,96721.06
2023-03-12T09:23:35.421Z,96724.22
2023-03-12T09:28:28.776Z,96725.66
2023-03-12T09:33:22.074Z,96724.22
2023-03-12T09:38:17.014Z,96733.59
2023-03-12T09:43:22.181Z,96738.94
2023-03-12T09:48:20.322Z,96748.44
2023-03-12T09:53:27.301Z,96745.13
2023-03-12T09:58:28.455Z,96751.22
2023-03-12T10:03:41.237Z,96755.84
2023-03-12T10:08:54.705Z,96760.00
2023-03-12T10:14:04.792Z,96768.59
2023-03-12T10:19:17.312Z,96764.94
2023-03-12T10:24:34.751Z,96753.00
2023-03-12T10:29:33.093Z,96757.63
2023-03-12T10:34:34.385Z,96744.25
2023-03-12T10:39:29.253Z,96743.81
2023-03-12T10:44:25.848Z,96756.09
2023-03-12T10:49:52.656Z,96744.41
2023-03-12T10:54:49.882Z,96741.34
2023-03-12T10:59:46.501Z,96739.56
2023-03-12T11:04:39.909Z,96751.03
2023-03-12T11:09:46.163Z,96746.69
2023-03-12T11:14:48.078Z,96758.97
2023-03-12T11:19:41.521Z,96764.34
2023-03-12T11:24:36.709Z,96772.00
2023-03-12T11:29:33.350Z,96773.47
2023-03-12T11:34:34.022Z,96771.50
2023-03-12T11:39:39.237Z,96767.41
2023-03-12T11:44:44.039Z,96777.69
2023-03-12T11:50:03.243Z,96778.50
2023-03-12T11:55:20.609Z,96776.34
2023-03-12T12:00:18.470Z,96783.88
2023-03-12T12:05:32.411Z,96782.44
2023-03-12T12:10:35.778Z,96795.53
2023-03-12T12:15:44.492Z,96805.88
2023-03-12T12:20:55.222Z,96790.53
2023-03-12T12:26:08.112Z,96801.72
2023-03-12T12:31:24.173Z,96804.81
2023-03-12T12:36:19.934Z,96807.22
2023-03-12T12:41:20.735Z,96806.19
2023-03-12T12:46:20.091Z,96809.28
2023-03-12T12:51:30.084Z,96804.03
2023-03-12T12:56:34.042Z,96807.91
2023-03-12T13:01:28.737Z,96817.81
2023-03-12T13:06:22.172Z,96817.59
2023-03-12T13:11:30.963Z,96827.63
2023-03-12T13:16:39.178Z,96823.38
2023-03-12T13:21:42.294Z,96841.53
2023-03-12T13:26:54.900Z,96841.41
2023-03-12T13:31:48.623Z,96827.66
2023-03-12T13:36:41.935Z,96824.41
2023-03-12T13:41:39.236Z,96835.34
2023-03-12T13:46:46.994Z,96841.50
2023-03-12T13:51:56.643Z,96840.75
2023-03-12T13:57:00.446Z,96849.63
2023-03-12T14:02:03.125Z,96866.44
2023-03-12T14:07:40.887Z,96863.59
2023-03-12T14:12:47.280Z,96857.72
2023-03-12T14:17:45.139Z,96850.72
2023-03-12T14:22:45.855Z,96846.75
2023-03-12T14:27:40.275Z,96848.06
2023-03-12T14:32:35.958Z,96831.06
2023-03-12T14:37:39.424Z,96828.38
2023-03-12T14:42:36.657Z,96813.94
2023-03-12T14:47:30.390Z,96807.63
2023-03-12T14:52:27.834Z,96816.28
2023-03-12T14:57:24.665Z,96816.84
2023-03-12T15:02:23.980Z,96816.59
2023-03-12T15:07:29.020Z,96811.94
2023-03-12T15:12:26.667Z,96817.34
2023-03-12T15:17:25.431Z,96816.25
2023-03-12T15:22:24.705Z,96832.25
2023-03-12T15:27:33.093Z,96814.34
2023-03-12T15:32:30.638Z,96824.47
2023-03-12T15:37:32.537Z,96818.75
2023-03-12T15:42:29.367Z,96822.69
2023-03-12T15:47:27.575Z,96810.28
2023-03-12T15:52:33.893Z,96804.56
2023-03-12T15:57:29.354Z,96813.63
2023-03-12T16:02:40.559Z,96822.34
2023-03-12T16:07:36.193Z,96815.41
2023-03-12T16:12:31.264Z,96817.56
2023-03-12T16:17:24.957Z,96819.97
2023-03-12T16:22:20.282Z,96827.38
2023-03-12T16:27:31.643Z,96829.63
2023-03-12T16:32:27.583Z,96835.13
2023-03-12T16:37:27.584Z,96837.81
2023-03-12T16:42:22.411Z,96837.09
2023-03-12T16:47:16.144Z,96816.44
2023-03-12T16:52:26.600Z,96814.63
2023-03-12T16:57:28.156Z,96811.38
2023-03-12T17:02:22.263Z,96818.03
2023-03-12T17:07:16.217Z,96810.88
2023-03-12T17:12:21.407Z,96804.44
2023-03-12T17:17:17.559Z,96803.19
2023-03-12T17:22:11.261Z,96805.56
2023-03-12T17:27:04.839Z,96812.91
2023-03-12T17:31:59.582Z,96808.00
2023-03-12T17:36:53.054Z,96802.16
2023-03-12T17:41:46.456Z,96800.72
2023-03-12T17:46:46.923Z,96796.66
2023-03-12T17:51:48.902Z,96790.19
2023-03-12T17:56:42.278Z,96790.13
2023-03-12T18:01:36.680Z,96797.81
2023-03-12T18:06:30.042Z,96797.66
2023-03-12T18:11:24.773Z,96785.84
2023-03-12T18:16:18.458Z,96785.22
2023-03-12T18:21:11.928Z,96772.34
2023-03-12T18:26:06.172Z,96787.84
2023-03-12T18:31:01.063Z,96785.34
2023-03-12T18:35:56.425Z,96790.06
2023-03-12T18:40:51.394Z,96791.09
2023-03-12T18:45:45.874Z,96789.53
2023-03-12T18:50:40.580Z,96792.03
2023-03-12T18:55:34.043Z,96809.31
2023-03-12T19:00:27.802Z,96824.28
2023-03-12T19:05:24.254Z,96836.38
2023-03-12T19:10:20.296Z,96832.41
2023-03-12T19:15:13.743Z,96833.88
2023-03-12T19:20:09.677Z,96822.81
2023-03-12T19:25:03.248Z,96821.88
2023-03-12T19:29:59.951Z,96822.06
2023-03-12T19:34:53.359Z,96840.66
2023-03-12T19:39:46.791Z,96832.59
2023-03-12T19:44:40.482Z,96829.97
2023-03-12T19:49:39.616Z,96836.63
2023-03-12T19:54:33.458Z,96828.78
2023-03-12T19:59:30.094Z,96833.34
2023-03-12T20:04:23.463Z,96826.88
2023-03-12T20:09:20.938Z,96819.72
2023-03-12T20:14:14.353Z,96834.72
2023-03-12T20:19:07.724Z,96819.44
2023-03-12T20:24:02.285Z,96845.47
2023-03-12T20:28:59.892Z,96848.56
2023-03-12T20:33:53.290Z,96847.47
2023-03-12T20:38:51.630Z,96842.81
2023-03-12T20:43:46.208Z,96833.75
2023-03-12T20:48:41.010Z,96830.75
2023-03-12T20:53:34.446Z,96835.94
2023-03-12T20:58:27.864Z,96836.50
2023-03-12T21:03:25.097Z,96838.75
2023-03-12T21:08:19.880Z,96847.63
2023-03-12T21:13:13.445Z,96856.03
2023-03-12T21:18:06.940Z,96846.03
2023-03-12T21:23:00.933Z,96844.53
2023-03-12T21:27:56.627Z,96854.53
2023-03-12T21:32:50.115Z,96850.97
2023-03-12T21:37:43.503Z,96842.78
2023-03-12T21:42:36.873Z,96847.94
2023-03-12T21:47:31.851Z,96837.56
2023-03-12T21:52:25.403Z,96838.56
2023-03-12T21:57:18.746Z,96830.16
2023-03-12T22:02:13.384Z,96832.03
2023-03-12T22:07:08.885Z,96826.28
2023-03-12T22:12:03.388Z,96817.59
2023-03-12T22:16:56.726Z,96810.81
2023-03-12T22:21:50.036Z,96807.13
2023-03-12T22:26:44.740Z,96814.47
2023-03-12T22:31:38.226Z,96822.38
2023-03-12T22:36:31.657Z,96812.19
2023-03-12T22:41:27.932Z,96798.78
2023-03-12T22:46:26.038Z,96787.88
2023-03-12T22:51:19.620Z,96769.22
2023-03-12T22:56:15.294Z,96759.50
2023-03-12T23:01:11.719Z,96753.16
2023-03-12T23:06:11.699Z,96744.50
2023-03-12T23:11:07.063Z,96755.22
2023-03-12T23:16:04.069Z,96745.22
2023-03-12T23:21:01.784Z,96746.94
2023-03-12T23:25:58.675Z,96745.81
2023-03-12T23:30:56.965Z,96744.09
2023-03-12T23:35:58.745Z,96737.69
2023-03-12T23:40:52.970Z,96725.50
2023-03-12T23:45:47.717Z,96725.41
2023-03-12T23:50:41.297Z,96725.19
2023-03-12T23:55:34.579Z,96709.13
